createdAt,value
2022-10-04T00:04:27.189Z,17.2
2022-10-04T00:10:54.673Z,17.1
2022-10-04T00:16:58.333Z,17
2022-10-04T00:22:36.219Z,17
2022-10-04T00:28:55.881Z,17
2022-10-04T00:34:36.146Z,17
2022-10-04T00:40:11.766Z,16.9
2022-10-04T00:45:46.778Z,16.9
2022-10-04T00:51:22.677Z,16.9
2022-10-04T00:56:57.529Z,16.8
2022-10-04T01:02:39.926Z,16.8
2022-10-04T01:08:38.481Z,16.8
2022-10-04T01:14:22.372Z,16.8
2022-10-04T01:20:16.215Z,16.7
2022-10-04T01:25:57.319Z,16.7
2022-10-04T01:31:53.377Z,16.6
2022-10-04T01:37:29.582Z,16.6
2022-10-04T01:43:37.413Z,16.6
2022-10-04T01:49:19.741Z,16.5
2022-10-04T01:54:54.516Z,16.5
2022-10-04T02:00:38.300Z,16.4
2022-10-04T02:06:13.974Z,16.4
2022-10-04T02:11:52.581Z,16.4
2022-10-04T02:17:34.535Z,16.4
2022-10-04T02:23:09.669Z,16.4
2022-10-04T02:28:45.213Z,16.3
2022-10-04T02:34:30.506Z,16.3
2022-10-04T02:40:15.744Z,16.3
2022-10-04T02:45:51.534Z,16.2
2022-10-04T02:51:29.278Z,16.2
2022-10-04T02:57:11.973Z,16.2
2022-10-04T03:02:54.680Z,16.2
2022-10-04T03:08:41.210Z,16.1
2022-10-04T03:14:26.508Z,16.1
2022-10-04T03:20:16.852Z,16.1
2022-10-04T03:26:12.521Z,16.1
2022-10-04T03:31:47.490Z,16.1
2022-10-04T03:37:23.783Z,16
2022-10-04T03:43:21.427Z,16
2022-10-04T03:48:56.296Z,16
2022-10-04T03:54:31.182Z,15.9
2022-10-04T04:00:10.260Z,15.9
2022-10-04T04:05:47.650Z,15.9
2022-10-04T04:11:51.120Z,15.8
2022-10-04T04:17:54.986Z,15.8
2022-10-04T04:23:32.513Z,15.8
2022-10-04T04:29:07.781Z,15.8
2022-10-04T04:34:42.619Z,15.8
2022-10-04T04:40:20.163Z,15.8
2022-10-04T04:46:26.442Z,15.8
2022-10-04T04:52:05.255Z,15.8
2022-10-04T04:57:40.192Z,15.7
2022-10-04T05:03:15.355Z,15.7
2022-10-04T05:08:50.027Z,15.7
2022-10-04T05:14:25.023Z,15.6
2022-10-04T05:20:08.544Z,15.6
2022-10-04T05:25:44.449Z,15.5
2022-10-04T05:31:40.327Z,15.5
2022-10-04T05:37:19.758Z,15.5
2022-10-04T05:43:03.851Z,15.5
2022-10-04T05:48:38.873Z,15.5
2022-10-04T05:54:13.804Z,15.5
2022-10-04T05:59:48.556Z,15.4
2022-10-04T06:05:26.880Z,15.4
2022-10-04T06:11:07.972Z,15.3
2022-10-04T06:16:43.105Z,15.3
2022-10-04T06:22:19.035Z,15.3
2022-10-04T06:27:54.070Z,15.3
2022-10-04T06:33:30.780Z,15.3
2022-10-04T06:39:05.924Z,15.3
2022-10-04T06:44:45.608Z,15.4
2022-10-04T06:50:21.808Z,15.3
2022-10-04T06:55:56.660Z,15
2022-10-04T07:01:31.626Z,15
2022-10-04T07:07:09.629Z,15
2022-10-04T07:12:44.578Z,15.1
2022-10-04T07:18:19.431Z,15.1
2022-10-04T07:23:54.670Z,15.2
2022-10-04T07:29:30.046Z,15.4
2022-10-04T07:35:04.776Z,15.5
2022-10-04T07:40:48.095Z,15.7
2022-10-04T07:46:23.216Z,15.8
2022-10-04T07:52:07.278Z,16
2022-10-04T07:57:42.479Z,16.2
2022-10-04T08:03:17.819Z,16.3
2022-10-04T08:08:53.605Z,16.5
2022-10-04T08:14:34.445Z,16.7
2022-10-04T08:20:34.093Z,17
2022-10-04T08:26:09.269Z,17.1
2022-10-04T08:31:44.815Z,17.5
2022-10-04T08:37:19.882Z,17.6
2022-10-04T08:42:57.214Z,17.9
2022-10-04T08:48:32.471Z,18.1
2022-10-04T08:54:08.141Z,18.3
2022-10-04T08:59:43.171Z,18.5
2022-10-04T09:05:18.216Z,18.7
2022-10-04T09:11:27.190Z,19
2022-10-04T09:17:02.275Z,19.1
2022-10-04T09:22:37.569Z,19.2
2022-10-04T09:29:45.774Z,19
2022-10-04T09:35:25.375Z,18.3
2022-10-04T09:41:06.224Z,18.2
2022-10-04T09:46:42.965Z,18.3
2022-10-04T09:52:31.574Z,18.4
2022-10-04T09:58:24.447Z,18.5
2022-10-04T10:04:00.663Z,18.6
2022-10-04T10:09:41.646Z,18.7
2022-10-04T10:15:33.144Z,18.8
2022-10-04T10:21:28.445Z,18.9
2022-10-04T10:27:11.530Z,19
2022-10-04T10:32:46.385Z,19.1
2022-10-04T10:38:24.377Z,19.1
2022-10-04T10:44:07.151Z,19.3
2022-10-04T10:50:03.518Z,19.4
2022-10-04T10:55:59.882Z,19.5
2022-10-04T11:01:34.889Z,19.6
2022-10-04T11:07:11.668Z,19.7
2022-10-04T11:12:49.303Z,19.8
2022-10-04T11:18:25.152Z,19.9
2022-10-04T11:24:21.140Z,20
2022-10-04T11:29:57.337Z,20.1
2022-10-04T11:35:32.337Z,20.2
2022-10-04T11:41:11.225Z,20.3
2022-10-04T11:46:46.720Z,20.4
2022-10-04T11:52:48.297Z,20.5
2022-10-04T11:58:47.009Z,20.6
2022-10-04T12:04:40.472Z,20.7
2022-10-04T12:10:16.758Z,20.8
2022-10-04T12:15:52.015Z,20.9
2022-10-04T12:21:28.073Z,21.1
2022-10-04T12:27:26.937Z,21.4
2022-10-04T12:33:01.801Z,21.7
2022-10-04T12:38:36.664Z,22
2022-10-04T12:44:22.807Z,22.3
2022-10-04T12:50:09.603Z,22.6
2022-10-04T12:55:45.303Z,22.9
2022-10-04T13:01:25.180Z,23.2
2022-10-04T13:07:23.168Z,25.1
2022-10-04T13:14:01.459Z,26
2022-10-04T13:19:37.442Z,26.5
2022-10-04T13:25:16.676Z,27
2022-10-04T13:30:52.036Z,27.5
2022-10-04T13:36:26.935Z,28.1
2022-10-04T13:42:49.201Z,29
2022-10-04T13:48:28.935Z,30
2022-10-04T13:54:13.904Z,31.4
2022-10-04T13:59:53.819Z,33.1
2022-10-04T14:05:28.872Z,36.5
2022-10-04T14:11:25.694Z,42.1
2022-10-04T14:17:00.777Z,43.8
2022-10-04T14:22:35.965Z,45.2
2022-10-04T14:28:32.098Z,46.7
2022-10-04T14:34:11.786Z,47
2022-10-04T14:39:52.374Z,47.7
2022-10-04T14:45:35.700Z,48.1
2022-10-04T14:51:15.285Z,46.6
2022-10-04T14:56:55.206Z,36
2022-10-04T15:02:32.480Z,32.5
2022-10-04T15:08:12.739Z,31
2022-10-04T15:14:13.419Z,29.7
2022-10-04T15:19:47.066Z,29
2022-10-04T15:25:28.021Z,29.5
2022-10-04T15:31:27.375Z,29.7
2022-10-04T15:37:34.579Z,29.5
2022-10-04T15:43:59.133Z,27.7
2022-10-04T15:50:12.242Z,26.5
2022-10-04T15:56:05.134Z,25.8
2022-10-04T16:01:49.791Z,25.4
2022-10-04T16:07:33.268Z,24.9
2022-10-04T16:13:55.650Z,24.6
2022-10-04T16:19:34.281Z,24.2
2022-10-04T16:25:13.700Z,24
2022-10-04T16:30:52.882Z,23.8
2022-10-04T16:36:32.656Z,23.7
2022-10-04T16:42:15.361Z,23.4
2022-10-04T16:47:54.916Z,23.2
2022-10-04T16:53:36.871Z,23.1
2022-10-04T16:59:37.839Z,22.9
2022-10-04T17:05:19.140Z,22.6
2022-10-04T17:11:20.308Z,22.5
2022-10-04T17:16:58.839Z,21.9
2022-10-04T17:22:38.926Z,21.5
2022-10-04T17:28:18.128Z,21.3
2022-10-04T17:33:57.823Z,21
2022-10-04T17:39:37.274Z,20.8
2022-10-04T17:45:17.110Z,20.5
2022-10-04T17:50:56.531Z,20.2
2022-10-04T17:56:35.678Z,20.1
2022-10-04T18:02:16.800Z,19.8
2022-10-04T18:07:57.669Z,19.7
2022-10-04T18:13:58.672Z,20.4
2022-10-04T18:19:36.597Z,20.5
2022-10-04T18:25:15.283Z,20.5
2022-10-04T18:31:09.873Z,20.5
2022-10-04T18:36:47.359Z,20.5
2022-10-04T18:42:23.461Z,20.5
2022-10-04T18:48:26.927Z,20.4
2022-10-04T18:54:05.945Z,20.4
2022-10-04T18:59:43.782Z,20.3
2022-10-04T19:05:39.387Z,20.2
2022-10-04T19:11:18.604Z,20.1
2022-10-04T19:16:53.810Z,20.1
2022-10-04T19:23:09.095Z,20
2022-10-04T19:28:43.931Z,20
2022-10-04T19:34:28.177Z,19.9
2022-10-04T19:40:03.031Z,19.9
2022-10-04T19:46:18.994Z,19.8
2022-10-04T19:51:55.014Z,19.8
2022-10-04T19:57:38.448Z,19.7
2022-10-04T20:03:16.390Z,19.6
2022-10-04T20:09:02.157Z,19.5
2022-10-04T20:14:46.024Z,19.4
2022-10-04T20:20:25.784Z,19.4
2022-10-04T20:26:04.084Z,19.3
2022-10-04T20:31:59.529Z,19.2
2022-10-04T20:37:36.255Z,19.2
2022-10-04T20:43:20.111Z,19.1
2022-10-04T20:49:06.119Z,19
2022-10-04T20:54:41.168Z,18.9
2022-10-04T21:00:28.459Z,18.9
2022-10-04T21:06:03.323Z,18.8
2022-10-04T21:11:52.632Z,18.7
2022-10-04T21:17:31.764Z,18.7
2022-10-04T21:23:06.663Z,18.6
2022-10-04T21:28:41.786Z,18.6
2022-10-04T21:34:34.727Z,18.5
2022-10-04T21:40:33.915Z,18.4
2022-10-04T21:46:13.501Z,18.4
2022-10-04T21:51:56.268Z,18.3
2022-10-04T21:57:38.961Z,18.2
2022-10-04T22:03:13.892Z,18.2
2022-10-04T22:09:23.045Z,18.1
2022-10-04T22:14:57.709Z,18.1
2022-10-04T22:20:32.622Z,18
2022-10-04T22:26:35.315Z,18
2022-10-04T22:32:24.308Z,18
2022-10-04T22:38:12.248Z,17.9
2022-10-04T22:44:08.069Z,17.8
2022-10-04T22:49:49.426Z,17.7
2022-10-04T22:55:46.369Z,17.7
2022-10-04T23:01:22.243Z,17.6
2022-10-04T23:07:04.113Z,17.6
2022-10-04T23:13:02.901Z,17.5
2022-10-04T23:18:36.734Z,17.4
2022-10-04T23:24:11.529Z,17.4
2022-10-04T23:29:52.355Z,17.3
2022-10-04T23:35:36.045Z,17.3
2022-10-04T23:43:08.267Z,17.2
2022-10-04T23:48:43.419Z,17.2
2022-10-04T23:54:21.335Z,17.1
2022-10-04T23:59:57.416Z,17.1
